Time;durP1;ratioP1;P1;durP2;ratioP2;P2;SDS_P1;SDS_P2;PMS_P1;PMS_P2;Temp;Humidity;BMP_temperature;BMP_pressure;BME280_temperature;BME280_humidity;BME280_pressure;Samples;Min_cycle;Max_cycle;Signal;HPM_P1;HPM_P2
2022/09/05 00:00:31;;;;;;;;;;;;;;;23.49;64.93;97358.20;180826;293;579993;-50
2022/09/05 00:01:33;;;;;;;;;;;;;;;23.49;64.96;97359.02;180945;292;620025;-46
2022/09/05 00:02:35;;;;;;;;;;;;;;;23.48;64.96;97357.97;181248;293;620112;-48
2022/09/05 00:03:37;;;;;;;;;;;;;;;23.45;64.99;97347.02;181235;292;620234;-52
2022/09/05 00:04:39;;;;;;;;;;;;;;;23.45;65.01;97355.89;180938;293;621016;-45
2022/09/05 00:05:41;;;;;;;;;;;;;;;23.43;65.01;97351.27;181418;292;620332;-44
2022/09/05 00:06:43;;;;;;;;;;;;;;;23.43;65.03;97349.89;180984;293;619846;-47
2022/09/05 00:07:45;;;;;;;;;;;;;;;23.42;65.02;97362.11;181551;292;619921;-46
2022/09/05 00:08:47;;;;;;;;;;;;;;;23.40;65.03;97358.88;180943;293;621242;-46
2022/09/05 00:09:49;;;;;;;;;;;;;;;23.40;65.04;97359.69;181454;292;620266;-47
2022/09/05 00:10:51;;;;;;;;;;;;;;;23.37;65.08;97362.52;180673;293;620974;-46
2022/09/05 00:11:53;;;;;;;;;;;;;;;23.36;65.09;97358.14;181375;292;620936;-45
2022/09/05 00:12:54;;;;;;;;;;;;;;;23.35;65.11;97361.25;181129;293;618347;-52
2022/09/05 00:13:56;;;;;;;;;;;;;;;23.34;65.14;97359.63;181569;292;621180;-48
2022/09/05 00:14:58;;;;;;;;;;;;;;;23.31;65.15;97357.55;180948;293;620361;-45
2022/09/05 00:16:02;;;;;;;;;;;;;;;23.30;65.15;97356.74;181311;292;620778;-45
2022/09/05 00:17:04;;;;;;;;;;;;;;;23.29;65.14;97355.13;181143;292;620997;-46
2022/09/05 00:18:06;;;;;;;;;;;;;;;23.30;65.15;97355.94;181229;293;619052;-50
2022/09/05 00:19:09;;;;;;;;;;;;;;;23.27;65.16;97352.44;181375;292;618846;-47
2022/09/05 00:20:11;;;;;;;;;;;;;;;23.27;65.15;97355.20;181255;293;622945;-49
2022/09/05 00:21:48;;;;;;;;;;;;;;;23.24;65.19;97352.55;186330;287;528513;-50
2022/09/05 00:22:50;;;;;;;;;;;;;;;23.22;65.18;97354.03;181642;291;620417;-49
2022/09/05 00:23:53;;;;;;;;;;;;;;;23.20;65.19;97351.61;181556;292;619937;-54
2022/09/05 00:24:55;;;;;;;;;;;;;;;23.21;65.22;97355.19;181360;292;621860;-52
2022/09/05 00:25:57;;;;;;;;;;;;;;;23.17;65.27;97350.88;180860;293;620290;-49
2022/09/05 00:26:58;;;;;;;;;;;;;;;23.16;65.31;97352.59;181126;293;620732;-48
2022/09/05 00:28:00;;;;;;;;;;;;;;;23.13;65.36;97351.90;180836;293;621304;-47
2022/09/05 00:29:02;;;;;;;;;;;;;;;23.08;65.41;97352.34;181628;292;620143;-49
2022/09/05 00:30:04;;;;;;;;;;;;;;;23.06;65.49;97353.80;181706;292;620356;-50
2022/09/05 00:31:06;;;;;;;;;;;;;;;23.02;65.55;97350.91;181584;292;621408;-51
2022/09/05 00:32:08;;;;;;;;;;;;;;;23.01;65.60;97350.67;181419;292;621297;-49
2022/09/05 00:33:10;;;;;;;;;;;;;;;22.99;65.67;97348.82;181697;292;620251;-49
2022/09/05 00:34:12;;;;;;;;;;;;;;;22.96;65.70;97348.09;181702;292;621106;-48
2022/09/05 00:35:14;;;;;;;;;;;;;;;22.93;66.19;97350.15;181759;292;620573;-47
2022/09/05 00:36:16;;;;;;;;;;;;;;;22.88;66.62;97348.97;181603;292;621312;-48
2022/09/05 00:37:18;;;;;;;;;;;;;;;22.86;66.85;97354.58;181716;292;620140;-48
2022/09/05 00:38:20;;;;;;;;;;;;;;;22.81;67.15;97351.41;181696;292;620800;-49
2022/09/05 00:39:22;;;;;;;;;;;;;;;22.79;67.34;97344.03;181603;292;620913;-54
2022/09/05 00:40:24;;;;;;;;;;;;;;;22.76;67.19;97352.42;181677;292;620171;-49
2022/09/05 00:41:26;;;;;;;;;;;;;;;22.74;67.36;97350.55;181784;292;620770;-48
2022/09/05 00:42:28;;;;;;;;;;;;;;;22.75;67.44;97356.87;181678;292;620916;-49
2022/09/05 00:43:30;;;;;;;;;;;;;;;22.72;67.61;97350.07;181403;292;619053;-51
2022/09/05 00:44:32;;;;;;;;;;;;;;;22.72;67.48;97349.27;181761;292;619407;-50
2022/09/05 00:45:34;;;;;;;;;;;;;;;22.72;67.33;97350.64;181517;292;620867;-50
2022/09/05 00:46:36;;;;;;;;;;;;;;;22.71;67.07;97352.59;181661;292;621351;-48
2022/09/05 00:47:38;;;;;;;;;;;;;;;22.74;66.96;97353.88;181530;292;620298;-48
2022/09/05 00:48:40;;;;;;;;;;;;;;;22.76;66.87;97361.28;181482;291;620339;-47
2022/09/05 00:49:42;;;;;;;;;;;;;;;22.77;66.82;97358.19;181725;292;620355;-48
2022/09/05 00:50:44;;;;;;;;;;;;;;;22.80;66.76;97362.23;181723;292;621240;-47
2022/09/05 00:51:46;;;;;;;;;;;;;;;22.83;66.68;97358.80;181602;292;620621;-48
2022/09/05 00:52:48;;;;;;;;;;;;;;;22.85;66.62;97360.67;181734;292;620016;-46
2022/09/05 00:53:50;;;;;;;;;;;;;;;22.89;66.57;97360.27;181736;292;619879;-48
2022/09/05 00:54:52;;;;;;;;;;;;;;;22.93;66.51;97359.02;181710;292;620496;-53
2022/09/05 00:55:54;;;;;;;;;;;;;;;22.96;66.48;97365.25;181856;292;620372;-47
2022/09/05 00:56:56;;;;;;;;;;;;;;;22.98;66.42;97365.17;181703;292;621370;-49
2022/09/05 00:57:58;;;;;;;;;;;;;;;23.00;66.36;97362.07;181735;292;621246;-49
2022/09/05 00:59:00;;;;;;;;;;;;;;;23.03;66.33;97364.16;181586;292;620091;-48
2022/09/05 01:00:02;;;;;;;;;;;;;;;23.06;66.27;97366.24;181756;292;622244;-50
2022/09/05 01:01:06;;;;;;;;;;;;;;;23.08;66.21;97365.36;181732;292;622424;-47
2022/09/05 01:02:08;;;;;;;;;;;;;;;23.12;66.17;97365.48;181827;292;620163;-49
2022/09/05 01:03:10;;;;;;;;;;;;;;;23.12;66.14;97362.72;181788;292;620451;-47
2022/09/05 01:04:11;;;;;;;;;;;;;;;23.13;66.07;97367.91;181736;292;621296;-49
2022/09/05 01:05:13;;;;;;;;;;;;;;;23.14;66.05;97368.72;181684;292;621066;-51
2022/09/05 01:06:16;;;;;;;;;;;;;;;23.14;66.02;97368.15;181833;292;620254;-47
2022/09/05 01:07:18;;;;;;;;;;;;;;;23.16;65.95;97372.77;181711;292;620973;-49
2022/09/05 01:08:20;;;;;;;;;;;;;;;23.16;65.94;97368.62;181528;292;620082;-48
2022/09/05 01:09:22;;;;;;;;;;;;;;;23.16;65.94;97363.66;181272;292;620111;-49
2022/09/05 01:10:24;;;;;;;;;;;;;;;23.18;65.90;97369.66;181497;292;620164;-48
2022/09/05 01:11:31;;;;;;;;;;;;;;;23.17;65.91;97368.05;181681;292;620155;-50
2022/09/05 01:12:32;;;;;;;;;;;;;;;23.17;65.89;97363.32;181610;292;590531;-49
2022/09/05 01:13:34;;;;;;;;;;;;;;;23.19;65.91;97365.20;181703;292;621403;-47
2022/09/05 01:14:36;;;;;;;;;;;;;;;23.19;65.91;97367.16;181733;292;620744;-50
2022/09/05 01:15:38;;;;;;;;;;;;;;;23.20;65.87;97361.86;181670;292;621449;-46
2022/09/05 01:16:40;;;;;;;;;;;;;;;23.19;65.85;97365.78;181693;292;619304;-47
2022/09/05 01:17:42;;;;;;;;;;;;;;;23.20;65.84;97360.48;181652;292;620160;-53
2022/09/05 01:18:46;;;;;;;;;;;;;;;23.19;65.83;97360.25;181411;292;620948;-46
2022/09/05 01:19:48;;;;;;;;;;;;;;;23.17;65.79;97361.94;181654;292;620108;-46
2022/09/05 01:20:50;;;;;;;;;;;;;;;23.20;65.77;97364.63;181667;292;620657;-51
2022/09/05 01:21:52;;;;;;;;;;;;;;;23.18;65.75;97361.36;180838;293;621123;-46
2022/09/05 01:22:54;;;;;;;;;;;;;;;23.19;65.75;97361.63;180861;293;621753;-47
2022/09/05 01:23:56;;;;;;;;;;;;;;;23.18;65.75;97359.44;180832;293;620252;-50
2022/09/05 01:24:57;;;;;;;;;;;;;;;23.17;65.78;97359.75;180829;293;620068;-46
2022/09/05 01:25:59;;;;;;;;;;;;;;;23.17;65.78;97361.13;180879;293;621205;-47
2022/09/05 01:27:01;;;;;;;;;;;;;;;23.16;65.76;97359.52;180854;293;621482;-48
2022/09/05 01:28:03;;;;;;;;;;;;;;;23.15;65.74;97364.81;180827;293;620175;-48
2022/09/05 01:29:05;;;;;;;;;;;;;;;23.14;65.74;97357.66;180774;293;621060;-45
2022/09/05 01:30:07;;;;;;;;;;;;;;;23.13;65.77;97356.85;180852;293;620258;-50
2022/09/05 01:31:09;;;;;;;;;;;;;;;23.11;65.74;97355.58;180858;293;622040;-45
2022/09/05 01:32:12;;;;;;;;;;;;;;;23.11;65.75;97358.34;180874;293;620612;-45
2022/09/05 01:33:14;;;;;;;;;;;;;;;23.09;65.73;97353.96;180814;293;621126;-50
2022/09/05 01:34:16;;;;;;;;;;;;;;;23.11;65.70;97362.48;180802;294;619661;-49
2022/09/05 01:35:19;;;;;;;;;;;;;;;23.07;65.70;97360.41;180854;294;620341;-46
2022/09/05 01:36:21;;;;;;;;;;;;;;;23.07;65.75;97359.56;180647;294;619593;-50
2022/09/05 01:37:23;;;;;;;;;;;;;;;23.07;65.76;97360.95;180863;294;620812;-49
2022/09/05 01:38:25;;;;;;;;;;;;;;;23.04;65.74;97358.29;180712;294;619334;-48
2022/09/05 01:39:27;;;;;;;;;;;;;;;23.04;65.76;97356.91;180625;294;621271;-49
2022/09/05 01:40:29;;;;;;;;;;;;;;;23.04;65.79;97358.86;180827;294;620945;-46
2022/09/05 01:41:31;;;;;;;;;;;;;;;23.02;65.78;97352.29;180871;294;621790;-49
2022/09/05 01:42:35;;;;;;;;;;;;;;;23.01;65.82;97352.05;180735;294;620127;-45
2022/09/05 01:43:37;;;;;;;;;;;;;;;23.01;65.85;97353.44;180954;294;588940;-52
2022/09/05 01:44:39;;;;;;;;;;;;;;;23.00;65.85;97353.20;180854;294;621443;-47
2022/09/05 01:45:41;;;;;;;;;;;;;;;23.00;65.86;97360.69;180817;294;619486;-48
2022/09/05 01:46:43;;;;;;;;;;;;;;;22.99;65.89;97357.11;180603;294;621334;-49
2022/09/05 01:47:45;;;;;;;;;;;;;;;22.99;65.88;97350.78;180866;294;620322;-47
2022/09/05 01:48:47;;;;;;;;;;;;;;;22.98;65.83;97353.31;180707;294;619858;-47
2022/09/05 01:49:49;;;;;;;;;;;;;;;22.97;65.85;97358.03;180857;294;620780;-47
2022/09/05 01:50:51;;;;;;;;;;;;;;;22.97;65.84;97358.60;180794;294;621398;-46
2022/09/05 01:51:53;;;;;;;;;;;;;;;22.97;65.84;97355.27;180836;294;622230;-46
2022/09/05 01:52:55;;;;;;;;;;;;;;;22.95;65.89;97358.91;180862;294;620007;-49
2022/09/05 01:53:57;;;;;;;;;;;;;;;22.94;65.89;97355.10;180874;294;621215;-49
2022/09/05 01:54:59;;;;;;;;;;;;;;;22.94;65.91;97356.48;180877;294;620977;-49
2022/09/05 01:56:01;;;;;;;;;;;;;;;22.92;65.95;97360.97;180892;294;620570;-47
2022/09/05 01:57:03;;;;;;;;;;;;;;;22.91;65.94;97359.35;180795;294;621947;-48
2022/09/05 01:58:05;;;;;;;;;;;;;;;22.91;65.94;97353.83;180869;294;620163;-48
2022/09/05 01:59:07;;;;;;;;;;;;;;;22.90;65.97;97356.92;180687;294;621023;-48
2022/09/05 02:00:09;;;;;;;;;;;;;;;22.88;66.01;97355.88;180803;294;620387;-48
2022/09/05 02:01:11;;;;;;;;;;;;;;;22.88;66.04;97356.45;180828;294;621366;-47
2022/09/05 02:02:13;;;;;;;;;;;;;;;22.87;66.04;97355.65;180707;294;621390;-51
2022/09/05 02:03:14;;;;;;;;;;;;;;;22.87;66.10;97357.03;180682;294;621212;-50
2022/09/05 02:04:16;;;;;;;;;;;;;;;22.87;66.09;97361.75;180481;294;623056;-52
2022/09/05 02:05:19;;;;;;;;;;;;;;;22.86;66.12;97362.86;180642;294;619253;-48
2022/09/05 02:06:21;;;;;;;;;;;;;;;22.85;66.16;97360.67;180508;294;619992;-46
2022/09/05 02:07:23;;;;;;;;;;;;;;;22.85;66.18;97357.91;180836;294;620298;-47
2022/09/05 02:08:25;;;;;;;;;;;;;;;22.85;66.21;97358.48;180830;294;620520;-46
2022/09/05 02:09:27;;;;;;;;;;;;;;;22.83;66.19;97352.45;180721;294;621230;-50
2022/09/05 02:10:29;;;;;;;;;;;;;;;22.83;66.19;97359.36;180710;294;620898;-46
2022/09/05 02:11:31;;;;;;;;;;;;;;;22.83;66.20;97361.55;180769;294;621307;-45
2022/09/05 02:12:33;;;;;;;;;;;;;;;22.82;66.21;97366.84;180864;294;620218;-46
2022/09/05 02:13:35;;;;;;;;;;;;;;;22.81;66.22;97354.17;180842;294;621062;-47
2022/09/05 02:14:37;;;;;;;;;;;;;;;22.81;66.23;97359.13;180868;294;621374;-46
2022/09/05 02:15:38;;;;;;;;;;;;;;;22.81;66.22;97366.61;180512;294;618630;-47
2022/09/05 02:16:42;;;;;;;;;;;;;;;22.80;66.22;97367.76;180757;294;620265;-48
2022/09/05 02:17:44;;;;;;;;;;;;;;;22.79;66.22;97360.61;180875;293;620930;-48
2022/09/05 02:18:46;;;;;;;;;;;;;;;22.79;66.24;97360.61;180804;294;621193;-46
2022/09/05 02:19:48;;;;;;;;;;;;;;;22.78;66.27;97359.00;180823;294;620266;-47
2022/09/05 02:20:50;;;;;;;;;;;;;;;22.77;66.27;97361.52;180818;293;622537;-47
2022/09/05 02:21:52;;;;;;;;;;;;;;;22.77;66.29;97358.76;180778;294;620693;-47
2022/09/05 02:22:54;;;;;;;;;;;;;;;22.76;66.33;97359.91;180911;294;625305;-47
2022/09/05 02:23:56;;;;;;;;;;;;;;;22.77;66.36;97361.52;180886;294;621279;-50
2022/09/05 02:24:57;;;;;;;;;;;;;;;22.75;66.38;97354.92;180842;294;621145;-47
2022/09/05 02:26:00;;;;;;;;;;;;;;;22.75;66.42;97354.92;180842;294;620878;-47
2022/09/05 02:27:01;;;;;;;;;;;;;;;22.75;66.42;97362.41;180895;294;620699;-50
2022/09/05 02:28:03;;;;;;;;;;;;;;;22.74;66.44;97351.12;180846;294;620567;-50
2022/09/05 02:29:05;;;;;;;;;;;;;;;22.74;66.43;97353.30;180792;294;621125;-49
2022/09/05 02:30:08;;;;;;;;;;;;;;;22.73;66.47;97350.88;180809;294;620143;-48
2022/09/05 02:31:10;;;;;;;;;;;;;;;22.71;66.50;97347.07;180633;294;619570;-47
2022/09/05 02:32:12;;;;;;;;;;;;;;;22.72;66.50;97352.83;180692;294;620304;-49
2022/09/05 02:33:13;;;;;;;;;;;;;;;22.71;66.54;97353.17;180832;294;621452;-49
2022/09/05 02:34:15;;;;;;;;;;;;;;;22.71;66.59;97360.89;180932;294;622326;-46
2022/09/05 02:35:17;;;;;;;;;;;;;;;22.70;66.60;97353.74;180831;294;619238;-49
2022/09/05 02:36:19;;;;;;;;;;;;;;;22.69;66.63;97352.12;180805;294;621517;-48
2022/09/05 02:37:21;;;;;;;;;;;;;;;22.69;66.65;97350.75;180835;294;620588;-47
2022/09/05 02:38:23;;;;;;;;;;;;;;;22.69;66.68;97352.70;180841;294;620750;-46
2022/09/05 02:39:25;;;;;;;;;;;;;;;22.69;66.69;97359.61;180735;294;620447;-50
2022/09/05 02:40:27;;;;;;;;;;;;;;;22.69;66.71;97360.98;180825;294;620954;-48
2022/09/05 02:41:31;;;;;;;;;;;;;;;22.67;66.75;97364.09;180875;294;621124;-46
2022/09/05 02:42:33;;;;;;;;;;;;;;;22.68;66.77;97364.90;180865;294;590188;-47
2022/09/05 02:43:35;;;;;;;;;;;;;;;22.68;66.79;97357.98;180866;294;619572;-49
2022/09/05 02:44:37;;;;;;;;;;;;;;;22.66;66.79;97365.23;180803;293;620448;-48
2022/09/05 02:45:38;;;;;;;;;;;;;;;22.66;66.82;97359.70;180845;294;620325;-47
2022/09/05 02:46:43;;;;;;;;;;;;;;;22.66;66.83;97362.47;180867;294;620210;-45
2022/09/05 02:47:44;;;;;;;;;;;;;;;22.66;66.86;97358.33;181023;294;589473;-48
2022/09/05 02:48:46;;;;;;;;;;;;;;;22.66;66.86;97357.52;180662;294;620763;-51
2022/09/05 02:49:48;;;;;;;;;;;;;;;22.66;66.88;97367.19;180717;294;620043;-45
2022/09/05 02:50:50;;;;;;;;;;;;;;;22.66;66.92;97358.90;180832;294;620147;-48
2022/09/05 02:51:52;;;;;;;;;;;;;;;22.66;66.90;97363.05;180888;294;620789;-51
2022/09/05 02:52:54;;;;;;;;;;;;;;;22.65;66.94;97357.25;180561;294;620217;-48
2022/09/05 02:53:56;;;;;;;;;;;;;;;22.65;66.93;97358.63;180849;293;621275;-49
2022/09/05 02:54:58;;;;;;;;;;;;;;;22.64;66.90;97361.16;180814;294;621190;-46
2022/09/05 02:56:00;;;;;;;;;;;;;;;22.63;66.91;97360.35;180859;294;620014;-47
2022/09/05 02:57:02;;;;;;;;;;;;;;;22.64;66.94;97354.25;180835;294;621228;-50
2022/09/05 02:58:03;;;;;;;;;;;;;;;22.62;66.98;97357.92;180878;293;619587;-49
2022/09/05 02:59:05;;;;;;;;;;;;;;;22.63;66.99;97359.55;180716;294;621080;-48
2022/09/05 03:00:10;;;;;;;;;;;;;;;22.61;66.99;97351.59;180446;294;620506;-48
2022/09/05 03:01:11;;;;;;;;;;;;;;;22.62;66.99;97359.31;180965;294;593005;-49
2022/09/05 03:02:13;;;;;;;;;;;;;;;22.62;67.01;97356.55;180877;294;620468;-50
2022/09/05 03:03:15;;;;;;;;;;;;;;;22.62;66.99;97360.69;180887;294;620372;-46
2022/09/05 03:04:17;;;;;;;;;;;;;;;22.61;66.95;97359.07;180866;294;620512;-46
2022/09/05 03:05:19;;;;;;;;;;;;;;;22.61;66.95;97359.07;180802;294;621303;-52
2022/09/05 03:06:21;;;;;;;;;;;;;;;22.61;66.92;97354.92;180922;294;619543;-46
2022/09/05 03:07:23;;;;;;;;;;;;;;;22.60;66.94;97358.83;180819;294;621093;-48
2022/09/05 03:08:25;;;;;;;;;;;;;;;22.59;66.94;97351.69;180861;294;620199;-49
2022/09/05 03:09:27;;;;;;;;;;;;;;;22.58;66.92;97350.88;180740;294;621603;-48
2022/09/05 03:10:29;;;;;;;;;;;;;;;22.59;66.99;97353.07;180829;294;620060;-46
2022/09/05 03:11:31;;;;;;;;;;;;;;;22.58;66.99;97355.59;180408;294;622726;-47
2022/09/05 03:12:33;;;;;;;;;;;;;;;22.58;67.00;97355.59;180839;294;620492;-47
2022/09/05 03:13:35;;;;;;;;;;;;;;;22.57;66.99;97354.79;180856;294;620965;-49
2022/09/05 03:14:37;;;;;;;;;;;;;;;22.57;67.00;97347.08;180876;293;621309;-47
2022/09/05 03:15:38;;;;;;;;;;;;;;;22.57;67.04;97341.55;180825;294;619599;-49
2022/09/05 03:16:41;;;;;;;;;;;;;;;22.56;67.09;97350.41;180636;294;620353;-49
2022/09/05 03:17:43;;;;;;;;;;;;;;;22.57;67.13;97346.50;180850;294;621994;-47
2022/09/05 03:18:45;;;;;;;;;;;;;;;22.57;67.17;97352.03;180771;294;621044;-50
2022/09/05 03:19:47;;;;;;;;;;;;;;;22.57;67.20;97349.84;180831;294;620593;-51
2022/09/05 03:20:50;;;;;;;;;;;;;;;22.57;67.21;97347.08;180837;293;620083;-47
2022/09/05 03:21:52;;;;;;;;;;;;;;;22.56;67.21;97354.55;180881;294;620639;-46
2022/09/05 03:22:55;;;;;;;;;;;;;;;22.56;67.23;97348.22;180832;294;620778;-45
2022/09/05 03:23:57;;;;;;;;;;;;;;;22.57;67.26;97352.03;180764;294;621201;-46
2022/09/05 03:24:59;;;;;;;;;;;;;;;22.56;67.29;97350.98;180894;294;620234;-47
2022/09/05 03:26:01;;;;;;;;;;;;;;;22.56;67.30;97353.74;180889;294;621485;-45
2022/09/05 03:27:03;;;;;;;;;;;;;;;22.56;67.25;97350.98;180861;294;619943;-48
2022/09/05 03:28:05;;;;;;;;;;;;;;;22.54;67.29;97352.67;180835;294;620951;-47
2022/09/05 03:29:07;;;;;;;;;;;;;;;22.54;67.28;97351.29;180690;294;621332;-48
2022/09/05 03:30:10;;;;;;;;;;;;;;;22.53;67.30;97353.81;180815;294;621201;-45
2022/09/05 03:31:13;;;;;;;;;;;;;;;22.51;67.31;97352.77;180830;294;621175;-49
2022/09/05 03:32:14;;;;;;;;;;;;;;;22.52;67.36;97351.63;180827;294;621459;-46
2022/09/05 03:33:16;;;;;;;;;;;;;;;22.52;67.35;97353.58;180865;294;621019;-48
2022/09/05 03:34:18;;;;;;;;;;;;;;;22.51;67.32;97353.34;180791;294;620142;-46
2022/09/05 03:35:20;;;;;;;;;;;;;;;22.51;67.34;97361.06;180822;294;620333;-49
2022/09/05 03:36:22;;;;;;;;;;;;;;;22.50;67.33;97360.82;180597;294;619548;-48
2022/09/05 03:37:24;;;;;;;;;;;;;;;22.50;67.32;97360.82;180813;294;621648;-46
2022/09/05 03:38:26;;;;;;;;;;;;;;;22.50;67.31;97359.44;180970;294;621456;-51
2022/09/05 03:39:28;;;;;;;;;;;;;;;22.50;67.35;97359.44;180705;294;620048;-49
2022/09/05 03:40:33;;;;;;;;;;;;;;;22.50;67.35;97361.39;180837;294;621987;-46
2022/09/05 03:41:34;;;;;;;;;;;;;;;22.50;67.37;97362.20;180969;294;589774;-48
2022/09/05 03:42:36;;;;;;;;;;;;;;;22.49;67.37;97352.30;180600;294;622350;-45
2022/09/05 03:43:38;;;;;;;;;;;;;;;22.50;67.41;97358.63;180877;294;619357;-49
2022/09/05 03:44:39;;;;;;;;;;;;;;;22.50;67.41;97352.53;180838;294;621089;-47
2022/09/05 03:45:41;;;;;;;;;;;;;;;22.49;67.44;97360.58;180770;294;621046;-49
2022/09/05 03:46:44;;;;;;;;;;;;;;;22.50;67.42;97364.97;180854;294;621145;-48
2022/09/05 03:47:46;;;;;;;;;;;;;;;22.48;67.43;97353.44;180899;294;620294;-47
2022/09/05 03:48:48;;;;;;;;;;;;;;;22.48;67.46;97356.78;180789;294;620240;-50
2022/09/05 03:49:50;;;;;;;;;;;;;;;22.48;67.49;97359.54;180859;294;621053;-51
2022/09/05 03:50:52;;;;;;;;;;;;;;;22.47;67.51;97354.59;180747;294;622440;-50
2022/09/05 03:51:54;;;;;;;;;;;;;;;22.47;67.53;97355.16;180847;294;620868;-47
2022/09/05 03:52:56;;;;;;;;;;;;;;;22.46;67.53;97356.30;180881;294;621317;-48
2022/09/05 03:53:58;;;;;;;;;;;;;;;22.46;67.54;97359.88;180812;294;621429;-52
2022/09/05 03:54:59;;;;;;;;;;;;;;;22.47;67.55;97364.83;180874;294;620797;-48
2022/09/05 03:56:01;;;;;;;;;;;;;;;22.46;67.54;97361.25;180887;294;621175;-50
2022/09/05 03:57:03;;;;;;;;;;;;;;;22.47;67.58;97363.45;180869;294;621059;-46
2022/09/05 03:58:05;;;;;;;;;;;;;;;22.47;67.57;97362.06;180850;294;620374;-49
2022/09/05 03:59:07;;;;;;;;;;;;;;;22.46;67.58;97359.88;180752;294;620126;-51
2022/09/05 04:00:09;;;;;;;;;;;;;;;22.45;67.60;97363.78;180861;294;620630;-46
2022/09/05 04:01:11;;;;;;;;;;;;;;;22.45;67.61;97364.35;180898;294;621124;-46
2022/09/05 04:02:13;;;;;;;;;;;;;;;22.45;67.62;97362.97;180815;294;622321;-47
2022/09/05 04:03:15;;;;;;;;;;;;;;;22.44;67.62;97362.16;180879;294;619895;-46
2022/09/05 04:04:17;;;;;;;;;;;;;;;22.45;67.60;97365.16;180850;294;620234;-49
2022/09/05 04:05:19;;;;;;;;;;;;;;;22.44;67.59;97363.55;180818;294;620526;-46
2022/09/05 04:06:21;;;;;;;;;;;;;;;22.44;67.59;97363.55;180852;294;621803;-47
2022/09/05 04:07:23;;;;;;;;;;;;;;;22.44;67.64;97364.12;180900;294;620591;-49
2022/09/05 04:08:25;;;;;;;;;;;;;;;22.44;67.65;97365.50;180816;294;621202;-53
2022/09/05 04:09:27;;;;;;;;;;;;;;;22.43;67.62;97363.27;180716;294;619791;-49
2022/09/05 04:10:29;;;;;;;;;;;;;;;22.44;67.64;97366.30;180859;294;619163;-47
2022/09/05 04:11:32;;;;;;;;;;;;;;;22.43;67.65;97366.03;180881;294;620316;-48
2022/09/05 04:12:34;;;;;;;;;;;;;;;22.43;67.66;97365.23;180881;294;620005;-50
2022/09/05 04:13:35;;;;;;;;;;;;;;;22.43;67.65;97369.38;180864;294;621020;-47
2022/09/05 04:14:37;;;;;;;;;;;;;;;22.42;67.67;97374.66;180911;294;620316;-49
2022/09/05 04:15:39;;;;;;;;;;;;;;;22.41;67.66;97366.94;180847;294;622070;-46
2022/09/05 04:16:41;;;;;;;;;;;;;;;22.40;67.67;97368.09;180823;294;620467;-48
2022/09/05 04:17:44;;;;;;;;;;;;;;;22.41;67.70;97368.90;180834;294;621239;-46
2022/09/05 04:18:46;;;;;;;;;;;;;;;22.40;67.70;97367.28;180846;294;620492;-47
2022/09/05 04:19:48;;;;;;;;;;;;;;;22.39;67.72;97366.47;180786;294;620060;-50
2022/09/05 04:20:50;;;;;;;;;;;;;;;22.38;67.71;97366.80;180777;293;620839;-48
2022/09/05 04:21:52;;;;;;;;;;;;;;;22.38;67.71;97369.00;180848;294;620185;-46
2022/09/05 04:22:54;;;;;;;;;;;;;;;22.38;67.69;97375.09;180626;294;621145;-48
2022/09/05 04:23:56;;;;;;;;;;;;;;;22.36;67.69;97368.52;180886;294;620968;-48
2022/09/05 04:24:58;;;;;;;;;;;;;;;22.37;67.70;97367.95;180705;294;620480;-47
2022/09/05 04:26:00;;;;;;;;;;;;;;;22.36;67.72;97372.66;180637;294;619697;-49
2022/09/05 04:27:02;;;;;;;;;;;;;;;22.36;67.71;97369.91;180864;294;619974;-47
2022/09/05 04:28:04;;;;;;;;;;;;;;;22.35;67.73;97366.09;180881;294;619728;-49
2022/09/05 04:29:06;;;;;;;;;;;;;;;22.35;67.73;97372.42;180773;294;621159;-49
2022/09/05 04:30:08;;;;;;;;;;;;;;;22.37;67.74;97372.09;180625;294;619131;-49
2022/09/05 04:31:10;;;;;;;;;;;;;;;22.35;67.75;97367.48;180781;294;620748;-48
2022/09/05 04:32:12;;;;;;;;;;;;;;;22.35;67.77;97368.86;180718;294;621130;-47
2022/09/05 04:33:14;;;;;;;;;;;;;;;22.36;67.91;97369.91;180822;294;619684;-48
2022/09/05 04:34:15;;;;;;;;;;;;;;;22.35;67.97;97365.52;180932;294;621025;-47
2022/09/05 04:35:17;;;;;;;;;;;;;;;22.35;67.95;97368.86;180825;294;619848;-47
2022/09/05 04:36:19;;;;;;;;;;;;;;;22.35;67.91;97371.05;180907;294;621492;-46
2022/09/05 04:37:21;;;;;;;;;;;;;;;22.36;67.90;97375.42;180864;294;621195;-46
2022/09/05 04:38:23;;;;;;;;;;;;;;;22.34;67.87;97374.95;180494;294;621203;-48
2022/09/05 04:39:25;;;;;;;;;;;;;;;22.35;67.87;97370.23;180693;294;620887;-48
2022/09/05 04:40:27;;;;;;;;;;;;;;;22.34;67.87;97369.42;180696;294;622055;-50
2022/09/05 04:41:29;;;;;;;;;;;;;;;22.34;67.91;97373.57;179695;294;619955;-47
2022/09/05 04:42:31;;;;;;;;;;;;;;;22.33;67.92;97369.19;180711;294;620534;-48
2022/09/05 04:43:33;;;;;;;;;;;;;;;22.34;67.97;97378.28;179666;294;620492;-47
2022/09/05 04:44:35;;;;;;;;;;;;;;;22.33;67.96;97373.33;180845;294;619741;-47
2022/09/05 04:45:37;;;;;;;;;;;;;;;22.33;68.00;97376.09;180570;294;619290;-47
2022/09/05 04:46:39;;;;;;;;;;;;;;;22.33;68.00;97377.47;180878;294;619901;-45
2022/09/05 04:47:41;;;;;;;;;;;;;;;22.32;67.96;97379.16;180822;294;621403;-46
2022/09/05 04:48:43;;;;;;;;;;;;;;;22.32;67.95;97375.83;180791;294;621822;-48
2022/09/05 04:49:45;;;;;;;;;;;;;;;22.32;67.98;97374.45;180785;294;619820;-47
2022/09/05 04:50:47;;;;;;;;;;;;;;;22.34;68.01;97379.09;180916;294;620274;-46
2022/09/05 04:51:49;;;;;;;;;;;;;;;22.33;68.00;97378.02;180851;294;621208;-49
2022/09/05 04:52:51;;;;;;;;;;;;;;;22.33;67.99;97377.47;180839;294;621885;-46
2022/09/05 04:53:53;;;;;;;;;;;;;;;22.33;67.96;97380.23;180858;294;619332;-46
2022/09/05 04:54:55;;;;;;;;;;;;;;;22.33;68.02;97380.23;180117;294;620585;-51
2022/09/05 04:55:57;;;;;;;;;;;;;;;22.33;68.03;97385.76;180824;294;621422;-49
2022/09/05 04:56:59;;;;;;;;;;;;;;;22.33;68.04;97389.91;180954;294;619611;-46
2022/09/05 04:58:01;;;;;;;;;;;;;;;22.33;68.04;97389.91;180868;294;621463;-47
2022/09/05 04:59:03;;;;;;;;;;;;;;;22.33;68.06;97386.30;180788;294;620235;-49
2022/09/05 05:00:05;;;;;;;;;;;;;;;22.33;68.09;97390.44;180790;294;621011;-47
2022/09/05 05:01:07;;;;;;;;;;;;;;;22.33;68.08;97391.28;180860;294;619627;-48
2022/09/05 05:02:09;;;;;;;;;;;;;;;22.34;68.04;97393.47;180892;294;620440;-48
2022/09/05 05:03:11;;;;;;;;;;;;;;;22.33;68.05;97392.66;180836;294;621117;-47
2022/09/05 05:04:15;;;;;;;;;;;;;;;22.32;68.07;97393.77;180750;294;620827;-49
2022/09/05 05:05:16;;;;;;;;;;;;;;;22.33;68.10;97398.19;180700;294;621004;-49
2022/09/05 05:06:19;;;;;;;;;;;;;;;22.32;68.10;97391.02;180813;294;620936;-50
2022/09/05 05:07:21;;;;;;;;;;;;;;;22.33;68.08;97398.73;180795;293;619564;-47
2022/09/05 05:08:23;;;;;;;;;;;;;;;22.32;68.08;97395.16;180594;294;619975;-49
2022/09/05 05:09:25;;;;;;;;;;;;;;;22.32;68.09;97392.39;180426;294;620343;-48
2022/09/05 05:10:27;;;;;;;;;;;;;;;22.33;68.08;97391.28;180743;294;620077;-49
2022/09/05 05:11:29;;;;;;;;;;;;;;;22.32;68.06;97395.16;180845;294;620600;-50
2022/09/05 05:12:31;;;;;;;;;;;;;;;22.32;68.05;97397.92;180842;294;621224;-47
2022/09/05 05:13:33;;;;;;;;;;;;;;;22.31;68.07;97396.30;180864;294;619319;-47
2022/09/05 05:14:35;;;;;;;;;;;;;;;22.30;68.06;97396.06;180852;294;621140;-51
2022/09/05 05:15:37;;;;;;;;;;;;;;;22.31;68.11;97396.88;180726;294;621722;-50
2022/09/05 05:16:39;;;;;;;;;;;;;;;22.31;68.11;97391.34;180855;294;621172;-47
2022/09/05 05:17:41;;;;;;;;;;;;;;;22.30;68.09;97396.06;180886;294;620397;-49
2022/09/05 05:18:42;;;;;;;;;;;;;;;22.30;68.11;97397.44;180717;294;621206;-59